createdAt,value
2018-04-13T00:03:53.679Z,98078.31
2018-04-13T00:10:03.848Z,98076.93
2018-04-13T00:16:14.468Z,98067.02
2018-04-13T00:22:18.906Z,98060.86
2018-04-13T00:28:23.292Z,98056.58
2018-04-13T00:34:39.312Z,98053.47
2018-04-13T00:40:44.558Z,98048.69
2018-04-13T00:47:06.463Z,98050.55
2018-04-13T00:53:28.742Z,98062.98
2018-04-13T00:59:40.357Z,98062.55
2018-04-13T01:05:45.231Z,98067.59
2018-04-13T01:11:49.807Z,98067.39
2018-04-13T01:17:54.296Z,98057.91
2018-04-13T01:23:58.652Z,98065.70
2018-04-13T01:30:03.063Z,98069.39
2018-04-13T01:36:07.416Z,98072.92
2018-04-13T01:42:17.635Z,98065.17
2018-04-13T01:48:27.942Z,98067.88
2018-04-13T01:54:38.040Z,98079.95
2018-04-13T02:00:42.622Z,98080.60
2018-04-13T02:06:47.790Z,98069.50
2018-04-13T02:12:52.307Z,98077.33
2018-04-13T02:19:02.752Z,98079.59
2018-04-13T02:25:14.475Z,98086.38
2018-04-13T02:31:18.959Z,98076.91
2018-04-13T02:37:23.370Z,98076.51
2018-04-13T02:43:41.369Z,98073.91
2018-04-13T02:49:51.962Z,98074.05
2018-04-13T02:56:07.993Z,98080.58
2018-04-13T03:02:18.979Z,98094.86
2018-04-13T03:08:29.455Z,98087.25
2018-04-13T03:14:33.914Z,98092.41
2018-04-13T03:20:38.311Z,98085.95
2018-04-13T03:26:50.186Z,98087.55
2018-04-13T03:33:00.443Z,98094.66
2018-04-13T03:39:16.764Z,98103.37
2018-04-13T03:45:39.632Z,98107.08
2018-04-13T03:51:50.292Z,98111.05
2018-04-13T03:57:54.800Z,98115.63
2018-04-13T04:03:59.281Z,98122.42
2018-04-13T04:10:03.721Z,98130.19
2018-04-13T04:16:08.087Z,98123.44
2018-04-13T04:22:30.431Z,98139.98
2018-04-13T04:28:35.736Z,98171.61
2018-04-13T04:34:40.772Z,98196.38
2018-04-13T04:40:45.953Z,98205.69
2018-04-13T04:46:50.325Z,98214.24
2018-04-13T04:53:00.503Z,98215.52
2018-04-13T04:59:10.793Z,98206.85
2018-04-13T05:05:21.127Z,98204.39
2018-04-13T05:11:32.060Z,98192.13
2018-04-13T05:17:42.873Z,98193.65
2018-04-13T05:23:59.612Z,98188.94
2018-04-13T05:30:10.532Z,98193.31
2018-04-13T05:36:20.908Z,98193.64
2018-04-13T05:42:31.425Z,98173.73
2018-04-13T05:48:36.081Z,98164.69
2018-04-13T05:54:41.730Z,98166.30
2018-04-13T06:00:46.246Z,98179.61
2018-04-13T06:06:50.680Z,98190.20
2018-04-13T06:12:55.053Z,98190.12
2018-04-13T06:18:59.516Z,98186.05
2018-04-13T06:25:10.052Z,98191.41
2018-04-13T06:31:21.224Z,98198.53
2018-04-13T06:37:25.588Z,98195.98
2018-04-13T06:43:36.651Z,98207.54
2018-04-13T06:49:53.263Z,98197.09
2018-04-13T06:56:03.125Z,98190.12
2018-04-13T07:02:08.255Z,98192.02
2018-04-13T07:08:18.729Z,98198.42
2018-04-13T07:14:34.640Z,98208.79
2018-04-13T07:20:51.100Z,98205.97
2018-04-13T07:26:55.468Z,98209.22
2018-04-13T07:32:59.839Z,98207.30
2018-04-13T07:39:09.655Z,98196.19
2018-04-13T07:45:31.519Z,98192.42
2018-04-13T07:51:35.933Z,98197.02
2018-04-13T07:57:40.295Z,98205.29
2018-04-13T08:03:44.728Z,98210.14
2018-04-13T08:09:49.194Z,98201.98
2018-04-13T08:16:05.515Z,98201.92
2018-04-13T08:22:10.679Z,98203.45
2018-04-13T08:28:20.873Z,98212.59
2018-04-13T08:34:25.275Z,98223.99
2018-04-13T08:40:35.470Z,98230.91
2018-04-13T08:46:40.622Z,98251.12
2018-04-13T08:52:51.560Z,98249.20
2018-04-13T08:58:56.696Z,98256.75
2018-04-13T09:05:01.071Z,98248.86
2018-04-13T09:11:05.730Z,98238.64
2018-04-13T09:17:16.162Z,98235.72
2018-04-13T09:23:26.568Z,98230.98
2018-04-13T09:29:30.926Z,98239.78
2018-04-13T09:35:42.643Z,98260.67
2018-04-13T09:41:47.876Z,98289.70
2018-04-13T09:47:52.347Z,98295.11
2018-04-13T09:53:56.717Z,98301.26
2018-04-13T10:00:06.992Z,98308.60
2018-04-13T10:06:17.242Z,98302.13
2018-04-13T10:12:21.826Z,98301.37
2018-04-13T10:18:26.289Z,98286.64
2018-04-13T10:24:36.735Z,98290.85
2018-04-13T10:30:41.109Z,98292.89
2018-04-13T10:36:51.251Z,98288.83
2018-04-13T10:43:01.420Z,98291.26
2018-04-13T10:49:05.825Z,98292.45
2018-04-13T10:55:10.833Z,98290.95
2018-04-13T11:01:21.400Z,98289.92
2018-04-13T11:07:37.218Z,98295.06
2018-04-13T11:13:42.191Z,98297.64
2018-04-13T11:19:52.363Z,98294.52
2018-04-13T11:25:56.750Z,98293.70
2018-04-13T11:32:01.543Z,98292.75
2018-04-13T11:38:12.363Z,98302.52
2018-04-13T11:44:22.614Z,98300.23
2018-04-13T11:50:27.000Z,98301.80
2018-04-13T11:56:37.389Z,98317.28
2018-04-13T12:02:47.304Z,98320.16
2018-04-13T12:08:51.816Z,98319.86
2018-04-13T12:14:56.167Z,98322.82
2018-04-13T12:21:01.399Z,98331.81
2018-04-13T12:27:05.865Z,98345.66
2018-04-13T12:33:10.269Z,98345.76
2018-04-13T12:39:14.675Z,98345.95
2018-04-13T12:45:19.040Z,98336.19
2018-04-13T12:51:23.401Z,98334.69
2018-04-13T12:57:27.840Z,98344.02
2018-04-13T13:03:32.222Z,98346.77
2018-04-13T13:09:36.595Z,98339.22
2018-04-13T13:15:41.788Z,98338.34
2018-04-13T13:21:46.187Z,98344.48
2018-04-13T13:27:50.554Z,98346.92
2018-04-13T13:33:54.915Z,98349.05
2018-04-13T13:39:59.280Z,98354.59
2018-04-13T13:46:04.443Z,98355.21
2018-04-13T13:52:08.854Z,98356.56
2018-04-13T13:58:13.235Z,98363.46
2018-04-13T14:04:17.593Z,98372.25
2018-04-13T14:10:22.736Z,98377.23
2018-04-13T14:16:27.219Z,98375.16
2018-04-13T14:22:31.640Z,98390.45
2018-04-13T14:28:36.802Z,98395.11
2018-04-13T14:34:42.124Z,98398.64
2018-04-13T14:40:47.332Z,98399.28
2018-04-13T14:46:51.743Z,98401.69
2018-04-13T14:52:56.145Z,98417.05
2018-04-13T14:59:01.289Z,98421.11
2018-04-13T15:05:05.655Z,98430.72
2018-04-13T15:11:10.231Z,98426.87
2018-04-13T15:17:14.720Z,98436.05
2018-04-13T15:23:19.177Z,98440.52
2018-04-13T15:29:24.297Z,98448.81
2018-04-13T15:35:28.694Z,98448.33
2018-04-13T15:41:33.194Z,98449.78
2018-04-13T15:47:37.578Z,98459.83
2018-04-13T15:53:41.947Z,98460.35
2018-04-13T15:59:46.305Z,98465.85
2018-04-13T16:05:50.750Z,98470.80
2018-04-13T16:11:55.227Z,98484.71
2018-04-13T16:17:59.698Z,98496.75
2018-04-13T16:24:04.056Z,98495.82
2018-04-13T16:30:08.484Z,98504.59
2018-04-13T16:36:13.875Z,98507.45
2018-04-13T16:42:18.387Z,98517.16
2018-04-13T16:48:22.831Z,98519.34
2018-04-13T16:54:27.199Z,98516.14
2018-04-13T17:00:31.576Z,98532.33
2018-04-13T17:06:36.096Z,98545.17
2018-04-13T17:12:41.210Z,98562.75
2018-04-13T17:18:45.725Z,98567.25
2018-04-13T17:24:50.518Z,98596.89
2018-04-13T17:30:54.906Z,98606.50
2018-04-13T17:36:59.362Z,98614.25
2018-04-13T17:43:03.752Z,98629.37
2018-04-13T17:49:08.184Z,98647.43
2018-04-13T17:55:13.491Z,98660.67
2018-04-13T18:01:17.851Z,98675.87
2018-04-13T18:07:22.221Z,98674.81
2018-04-13T18:13:26.589Z,98678.41
2018-04-13T18:19:30.966Z,98688.28
2018-04-13T18:25:35.319Z,98703.43
2018-04-13T18:31:40.471Z,98722.66
2018-04-13T18:37:44.829Z,98731.52
2018-04-13T18:43:49.281Z,98742.05
2018-04-13T18:49:54.408Z,98748.42
2018-04-13T18:55:58.845Z,98760.08
2018-04-13T19:08:05.768Z,98783.91
2018-04-13T19:14:10.769Z,98793.06
2018-04-13T19:20:15.562Z,98796.77
2018-04-13T19:26:20.039Z,98808.20
2018-04-13T19:32:24.386Z,98797.88
2018-04-13T19:38:28.874Z,98804.98
2018-04-13T19:44:33.249Z,98814.42
2018-04-13T19:50:37.628Z,98828.88
2018-04-13T19:56:42.112Z,98853.48
2018-04-13T20:02:46.547Z,98856.61
2018-04-13T20:08:51.689Z,98867.14
2018-04-13T20:14:56.237Z,98884.45
2018-04-13T20:21:00.618Z,98887.27
2018-04-13T20:27:05.085Z,98892.64
2018-04-13T20:33:09.649Z,98903.67
2018-04-13T20:39:14.143Z,98916.87
2018-04-13T20:45:19.287Z,98923.08
2018-04-13T20:51:23.848Z,98925.20
2018-04-13T20:57:28.243Z,98931.50
2018-04-13T21:03:32.610Z,98925.36
2018-04-13T21:09:36.998Z,98938.38
2018-04-13T21:15:41.614Z,98933.45
2018-04-13T21:21:46.006Z,98938.27
2018-04-13T21:27:50.436Z,98946.44
2018-04-13T21:33:54.803Z,98953.33
2018-04-13T21:39:59.179Z,98966.19
2018-04-13T21:46:03.572Z,98967.20
2018-04-13T21:52:07.940Z,98975.40
2018-04-13T21:58:12.344Z,98980.37
2018-04-13T22:04:17.551Z,98984.80
2018-04-13T22:10:22.017Z,98994.13
2018-04-13T22:16:27.165Z,99011.57
2018-04-13T22:22:31.528Z,99011.77
2018-04-13T22:28:35.980Z,99022.86
2018-04-13T22:34:40.799Z,99028.40
2018-04-13T22:40:45.354Z,99039.83
2018-04-13T22:46:49.711Z,99049.44
2018-04-13T22:52:54.069Z,99064.22
2018-04-13T22:58:59.202Z,99073.44
2018-04-13T23:05:03.665Z,99068.72
2018-04-13T23:11:08.391Z,99085.27
2018-04-13T23:17:13.010Z,99093.29
2018-04-13T23:23:17.511Z,99108.83
2018-04-13T23:29:21.902Z,99105.60
2018-04-13T23:35:26.327Z,99110.05
2018-04-13T23:41:31.452Z,99120.68
2018-04-13T23:47:36.024Z,99123.87
2018-04-13T23:53:41.792Z,99130.53
2018-04-13T23:59:46.203Z,99137.53
